createdAt,value
2023-06-12T00:00:19.375Z,102346.02
2023-06-12T00:01:36.909Z,102348.38
2023-06-12T00:02:38.460Z,102347.58
2023-06-12T00:03:46.113Z,102345.02
2023-06-12T00:04:47.979Z,102347.35
2023-06-12T00:05:50.116Z,102349.50
2023-06-12T00:06:51.771Z,102350.09
2023-06-12T00:07:56.661Z,102348.47
2023-06-12T00:08:58.788Z,102346.77
2023-06-12T00:10:00.401Z,102346.89
2023-06-12T00:11:07.692Z,102345.27
2023-06-12T00:12:09.523Z,102346.59
2023-06-12T00:13:12.422Z,102347.38
2023-06-12T00:14:13.893Z,102348.48
2023-06-12T00:15:15.482Z,102347.03
2023-06-12T00:16:17.306Z,102348.92
2023-06-12T00:17:18.867Z,102350.73
2023-06-12T00:18:20.304Z,102344.48
2023-06-12T00:19:22.484Z,102349.17
2023-06-12T00:20:24.098Z,102345.05
2023-06-12T00:21:25.738Z,102344.00
2023-06-12T00:22:27.196Z,102348.98
2023-06-12T00:23:29.333Z,102347.63
2023-06-12T00:24:30.783Z,102345.45
2023-06-12T00:25:33.580Z,102347.67
2023-06-12T00:26:35.811Z,102345.39
2023-06-12T00:27:37.247Z,102346.92
2023-06-12T00:28:38.843Z,102345.14
2023-06-12T00:29:40.402Z,102344.86
2023-06-12T00:30:41.943Z,102346.37
2023-06-12T00:31:43.529Z,102343.27
2023-06-12T00:32:45.578Z,102343.40
2023-06-12T00:33:48.468Z,102343.66
2023-06-12T00:34:50.279Z,102344.38
2023-06-12T00:35:52.189Z,102346.59
2023-06-12T00:36:53.723Z,102346.91
2023-06-12T00:37:55.624Z,102346.16
2023-06-12T00:38:57.156Z,102344.71
2023-06-12T00:39:58.716Z,102342.05
2023-06-12T00:41:00.236Z,102346.35
2023-06-12T00:42:01.679Z,102346.14
2023-06-12T00:43:03.530Z,102343.75
2023-06-12T00:44:04.933Z,102340.66
2023-06-12T00:45:07.127Z,102340.65
2023-06-12T00:46:09.526Z,102338.53
2023-06-12T00:47:11.566Z,102337.60
2023-06-12T00:48:13.674Z,102339.80
2023-06-12T00:49:15.293Z,102342.80
2023-06-12T00:50:18.557Z,102342.05
2023-06-12T00:51:21.073Z,102341.50
2023-06-12T00:52:26.497Z,102341.38
2023-06-12T00:53:27.992Z,102338.54
2023-06-12T00:54:30.409Z,102343.05
2023-06-12T00:55:32.463Z,102337.05
2023-06-12T00:56:33.923Z,102339.90
2023-06-12T00:57:37.315Z,102338.34
2023-06-12T00:58:40.056Z,102339.98
2023-06-12T00:59:42.176Z,102335.89
2023-06-12T01:00:43.910Z,102339.09
2023-06-12T01:01:45.474Z,102334.80
2023-06-12T01:02:54.037Z,102335.66
2023-06-12T01:03:58.386Z,102334.79
2023-06-12T01:05:00.247Z,102335.48
2023-06-12T01:06:05.734Z,102337.71
2023-06-12T01:07:14.466Z,102336.84
2023-06-12T01:08:35.047Z,102329.52
2023-06-12T01:10:04.043Z,102329.68
2023-06-12T01:11:11.376Z,102335.16
2023-06-12T01:12:13.616Z,102333.34
2023-06-12T01:13:17.984Z,102330.63
2023-06-12T01:14:21.289Z,102331.44
2023-06-12T01:15:23.062Z,102333.69
2023-06-12T01:16:24.516Z,102331.11
2023-06-12T01:17:27.815Z,102327.84
2023-06-12T01:18:30.253Z,102328.56
2023-06-12T01:19:32.857Z,102330.04
2023-06-12T01:20:35.460Z,102329.02
2023-06-12T01:21:41.764Z,102327.02
2023-06-12T01:23:01.360Z,102324.02
2023-06-12T01:24:42.970Z,102324.15
2023-06-12T01:26:04.032Z,102323.70
2023-06-12T01:27:24.333Z,102327.08
2023-06-12T01:28:41.485Z,102322.82
2023-06-12T01:30:13.734Z,102324.98
2023-06-12T01:32:55.794Z,102324.45
2023-06-12T01:34:07.579Z,102321.32
2023-06-12T01:35:17.124Z,102324.44
2023-06-12T01:36:23.940Z,102322.90
2023-06-12T01:37:50.100Z,102325.05
2023-06-12T01:39:00.051Z,102324.64
2023-06-12T01:40:06.257Z,102323.39
2023-06-12T01:41:10.040Z,102322.61
2023-06-12T01:42:12.500Z,102322.70
2023-06-12T01:43:14.114Z,102322.08
2023-06-12T01:44:17.459Z,102321.81
2023-06-12T01:45:18.893Z,102320.94
2023-06-12T01:46:20.495Z,102320.00
2023-06-12T01:47:22.909Z,102319.14
2023-06-12T01:48:25.004Z,102316.98
2023-06-12T01:49:27.111Z,102319.65
2023-06-12T01:50:28.692Z,102317.27
2023-06-12T01:51:30.941Z,102318.77
2023-06-12T01:52:33.351Z,102321.85
2023-06-12T01:53:37.101Z,102320.98
2023-06-12T01:54:39.389Z,102320.71
2023-06-12T01:55:41.794Z,102320.05
2023-06-12T01:56:43.741Z,102317.22
2023-06-12T01:57:45.612Z,102318.00
2023-06-12T01:58:50.457Z,102322.52
2023-06-12T02:00:21.361Z,102317.56
2023-06-12T02:01:24.339Z,102320.79
2023-06-12T02:02:26.680Z,102318.34
2023-06-12T02:03:29.558Z,102315.08
2023-06-12T02:04:31.345Z,102316.89
2023-06-12T02:05:37.527Z,102318.04
2023-06-12T02:06:38.956Z,102317.30
2023-06-12T02:07:40.602Z,102316.02
2023-06-12T02:08:42.887Z,102316.14
2023-06-12T02:09:47.577Z,102314.60
2023-06-12T02:10:50.663Z,102318.10
2023-06-12T02:11:52.237Z,102314.98
2023-06-12T02:12:53.806Z,102319.67
2023-06-12T02:13:55.508Z,102316.14
2023-06-12T02:14:57.615Z,102315.77
2023-06-12T02:15:59.245Z,102313.56
2023-06-12T02:17:04.498Z,102314.88
2023-06-12T02:18:07.302Z,102317.13
2023-06-12T02:19:08.850Z,102314.27
2023-06-12T02:20:11.203Z,102314.30
2023-06-12T02:21:15.125Z,102315.39
2023-06-12T02:22:17.035Z,102316.14
2023-06-12T02:23:18.562Z,102313.58
2023-06-12T02:24:21.379Z,102313.17
2023-06-12T02:25:22.996Z,102319.77
2023-06-12T02:26:25.160Z,102315.54
2023-06-12T02:27:26.812Z,102320.60
2023-06-12T02:28:28.399Z,102321.04
2023-06-12T02:29:30.020Z,102320.77
2023-06-12T02:30:31.810Z,102317.75
2023-06-12T02:31:34.081Z,102318.02
2023-06-12T02:32:35.893Z,102314.70
2023-06-12T02:33:40.538Z,102318.35
2023-06-12T02:34:42.053Z,102317.98
2023-06-12T02:35:43.727Z,102320.08
2023-06-12T02:36:47.285Z,102320.17
2023-06-12T02:37:53.685Z,102323.77
2023-06-12T02:38:56.139Z,102324.10
2023-06-12T02:39:57.751Z,102326.58
2023-06-12T02:41:00.555Z,102324.80
2023-06-12T02:42:02.345Z,102324.80
2023-06-12T02:43:05.268Z,102330.84
2023-06-12T02:44:07.172Z,102330.31
2023-06-12T02:45:09.323Z,102329.11
2023-06-12T02:46:10.862Z,102330.19
2023-06-12T02:47:12.423Z,102327.30
2023-06-12T02:48:14.780Z,102331.54
2023-06-12T02:49:16.921Z,102327.65
2023-06-12T02:50:18.572Z,102331.86
2023-06-12T02:51:28.228Z,102330.18
2023-06-12T02:52:30.243Z,102332.63
2023-06-12T02:53:32.103Z,102331.55
2023-06-12T02:54:33.678Z,102334.86
2023-06-12T02:55:40.325Z,102336.05
2023-06-12T02:56:45.330Z,102333.55
2023-06-12T02:57:47.067Z,102335.10
2023-06-12T02:58:48.736Z,102340.38
2023-06-12T02:59:50.562Z,102337.31
2023-06-12T03:01:00.158Z,102338.85
2023-06-12T03:02:01.995Z,102337.52
2023-06-12T03:03:29.623Z,102340.90
2023-06-12T03:04:33.393Z,102341.54
2023-06-12T03:05:36.565Z,102342.04
2023-06-12T03:06:38.773Z,102345.58
2023-06-12T03:07:40.710Z,102344.52
2023-06-12T03:08:45.178Z,102348.27
2023-06-12T03:09:47.167Z,102344.29
2023-06-12T03:10:49.261Z,102349.21
2023-06-12T03:11:52.475Z,102350.52
2023-06-12T03:12:54.059Z,102350.02
2023-06-12T03:13:55.523Z,102354.59
2023-06-12T03:14:58.520Z,102353.70
2023-06-12T03:16:00.700Z,102352.39
2023-06-12T03:17:02.793Z,102350.21
2023-06-12T03:18:04.648Z,102355.10
2023-06-12T03:19:06.782Z,102355.04
2023-06-12T03:20:09.541Z,102353.54
2023-06-12T03:21:11.769Z,102353.11
2023-06-12T03:22:13.406Z,102355.39
2023-06-12T03:23:16.019Z,102354.24
2023-06-12T03:24:17.623Z,102356.07
2023-06-12T03:25:19.545Z,102352.19
2023-06-12T03:26:21.089Z,102354.02
2023-06-12T03:27:23.154Z,102356.04
2023-06-12T03:28:24.681Z,102354.73
2023-06-12T03:29:26.200Z,102354.85
2023-06-12T03:30:27.678Z,102353.49
2023-06-12T03:31:29.599Z,102353.69
2023-06-12T03:32:32.573Z,102355.53
2023-06-12T03:33:36.468Z,102356.46
2023-06-12T03:34:39.715Z,102354.93
2023-06-12T03:35:41.510Z,102357.19
2023-06-12T03:36:44.404Z,102354.93
2023-06-12T03:37:47.619Z,102356.48
2023-06-12T03:38:50.316Z,102356.34
2023-06-12T03:39:52.287Z,102354.75
2023-06-12T03:40:54.133Z,102355.65
2023-06-12T03:41:57.220Z,102355.77
2023-06-12T03:43:04.431Z,102354.09
2023-06-12T03:44:06.137Z,102357.34
2023-06-12T03:45:10.736Z,102356.35
2023-06-12T03:46:12.554Z,102356.33
2023-06-12T03:47:14.580Z,102354.19
2023-06-12T03:48:16.924Z,102355.26
2023-06-12T03:49:18.808Z,102353.11
2023-06-12T03:50:22.642Z,102354.12
2023-06-12T03:51:24.447Z,102357.62
2023-06-12T03:52:28.473Z,102356.28
2023-06-12T03:53:30.250Z,102355.28
2023-06-12T03:54:31.905Z,102356.70
2023-06-12T03:55:34.757Z,102353.95
2023-06-12T03:56:36.402Z,102356.74
2023-06-12T03:57:38.121Z,102356.59
2023-06-12T03:58:39.705Z,102355.45
2023-06-12T03:59:41.157Z,102355.17
2023-06-12T04:00:48.040Z,102355.70
2023-06-12T04:01:49.986Z,102355.80
2023-06-12T04:02:54.108Z,102357.73
2023-06-12T04:03:56.882Z,102357.90
2023-06-12T04:04:58.376Z,102357.58
2023-06-12T04:05:59.840Z,102356.92
2023-06-12T04:07:01.387Z,102354.99
2023-06-12T04:08:03.133Z,102357.04
2023-06-12T04:09:05.840Z,102355.60
2023-06-12T04:10:11.347Z,102357.36
2023-06-12T04:11:15.434Z,102360.73
2023-06-12T04:12:17.027Z,102355.34
2023-06-12T04:13:18.529Z,102353.25
2023-06-12T04:14:20.674Z,102354.73
2023-06-12T04:15:22.966Z,102355.41
2023-06-12T04:16:24.947Z,102354.58
2023-06-12T04:17:26.507Z,102350.80
2023-06-12T04:18:27.936Z,102352.64
2023-06-12T04:19:29.663Z,102351.39
2023-06-12T04:20:32.626Z,102354.17
2023-06-12T04:21:34.271Z,102351.98
2023-06-12T04:22:36.338Z,102352.96
2023-06-12T04:23:41.568Z,102351.27
2023-06-12T04:24:43.779Z,102349.39
2023-06-12T04:25:45.645Z,102348.66
2023-06-12T04:26:49.051Z,102349.54
2023-06-12T04:27:50.637Z,102350.15
2023-06-12T04:28:53.583Z,102348.39
2023-06-12T04:29:57.762Z,102351.75
2023-06-12T04:31:00.494Z,102352.16
2023-06-12T04:32:02.264Z,102349.68
2023-06-12T04:33:04.007Z,102352.38
2023-06-12T04:34:06.658Z,102352.95
2023-06-12T04:35:08.867Z,102354.39
2023-06-12T04:36:13.957Z,102358.05
2023-06-12T04:37:18.837Z,102354.33
2023-06-12T04:38:20.765Z,102359.51
2023-06-12T04:39:23.986Z,102361.52
2023-06-12T04:40:27.962Z,102362.71
2023-06-12T04:41:33.389Z,102362.02
2023-06-12T04:42:36.559Z,102362.73
2023-06-12T04:43:39.014Z,102360.30
2023-06-12T04:44:40.530Z,102365.02
2023-06-12T04:45:44.757Z,102363.20
2023-06-12T04:46:47.318Z,102363.13
2023-06-12T04:47:50.489Z,102363.55
2023-06-12T04:48:52.368Z,102365.95
2023-06-12T04:49:58.303Z,102364.88
2023-06-12T04:51:00.390Z,102367.61
2023-06-12T04:52:03.518Z,102368.68
2023-06-12T04:53:06.784Z,102369.60
2023-06-12T04:54:10.078Z,102367.86
2023-06-12T04:55:11.650Z,102364.33
2023-06-12T04:56:13.435Z,102368.77
2023-06-12T04:57:16.662Z,102367.73
2023-06-12T04:58:18.432Z,102366.91
2023-06-12T04:59:19.898Z,102368.15
2023-06-12T05:00:21.525Z,102366.28
2023-06-12T05:01:23.621Z,102365.95
2023-06-12T05:02:25.367Z,102366.75
2023-06-12T05:03:29.193Z,102368.65
2023-06-12T05:04:31.224Z,102369.02
2023-06-12T05:05:33.663Z,102372.02
2023-06-12T05:06:38.171Z,102369.80
2023-06-12T05:07:41.891Z,102372.08
2023-06-12T05:08:43.603Z,102369.16
2023-06-12T05:09:45.246Z,102369.11
2023-06-12T05:10:46.758Z,102371.92
2023-06-12T05:11:48.285Z,102368.25
2023-06-12T05:12:50.415Z,102368.41
2023-06-12T05:13:51.873Z,102368.23
2023-06-12T05:14:53.668Z,102368.39
2023-06-12T05:15:55.606Z,102367.85
2023-06-12T05:16:59.298Z,102372.29
2023-06-12T05:18:01.781Z,102373.06
2023-06-12T05:19:04.039Z,102370.30
2023-06-12T05:20:09.467Z,102368.73
2023-06-12T05:21:13.913Z,102370.64
2023-06-12T05:22:16.565Z,102369.94
2023-06-12T05:23:18.340Z,102370.22
2023-06-12T05:24:20.894Z,102368.61
2023-06-12T05:25:22.902Z,102368.73
2023-06-12T05:26:25.734Z,102370.27
2023-06-12T05:27:27.249Z,102365.95
2023-06-12T05:28:28.653Z,102366.49
2023-06-12T05:29:30.132Z,102367.23
2023-06-12T05:30:31.727Z,102367.70
2023-06-12T05:31:34.539Z,102363.25
2023-06-12T05:32:36.794Z,102363.32
2023-06-12T05:33:40.043Z,102364.93
2023-06-12T05:34:43.420Z,102360.70
2023-06-12T05:35:45.228Z,102360.77
2023-06-12T05:36:46.949Z,102361.80
2023-06-12T05:37:48.628Z,102358.44
2023-06-12T05:38:50.302Z,102360.45
2023-06-12T05:39:53.436Z,102356.02
2023-06-12T05:40:55.097Z,102355.89
2023-06-12T05:41:57.362Z,102356.27
2023-06-12T05:42:59.862Z,102355.89
2023-06-12T05:44:04.080Z,102356.59
2023-06-12T05:45:06.508Z,102354.00
2023-06-12T05:46:08.044Z,102352.54
2023-06-12T05:47:11.235Z,102355.72
2023-06-12T05:48:13.141Z,102351.86
2023-06-12T05:49:14.671Z,102351.75
2023-06-12T05:50:16.565Z,102352.69
2023-06-12T05:51:18.189Z,102352.65
2023-06-12T05:52:20.133Z,102348.86
2023-06-12T05:53:22.108Z,102350.48
2023-06-12T05:54:23.763Z,102349.31
2023-06-12T05:55:30.372Z,102348.15
2023-06-12T05:56:33.075Z,102351.09
2023-06-12T05:57:35.100Z,102350.50
2023-06-12T05:58:36.822Z,102350.41
2023-06-12T05:59:38.301Z,102351.35
2023-06-12T06:00:44.045Z,102354.38
2023-06-12T06:01:51.445Z,102354.00
2023-06-12T06:02:53.868Z,102352.84
2023-06-12T06:04:04.614Z,102353.81
2023-06-12T06:05:10.172Z,102350.88
2023-06-12T06:06:13.528Z,102354.35
2023-06-12T06:07:18.592Z,102350.32
2023-06-12T06:08:22.302Z,102348.39
2023-06-12T06:09:24.140Z,102348.83
2023-06-12T06:10:27.071Z,102350.18
2023-06-12T06:11:28.869Z,102350.77
2023-06-12T06:12:30.687Z,102349.10
2023-06-12T06:13:32.884Z,102349.64
2023-06-12T06:14:34.859Z,102346.67
2023-06-12T06:15:37.015Z,102347.38
2023-06-12T06:16:53.289Z,102349.66
2023-06-12T06:17:57.252Z,102348.17
2023-06-12T06:18:58.850Z,102354.53
2023-06-12T06:20:00.433Z,102353.39
2023-06-12T06:21:01.926Z,102350.06
2023-06-12T06:22:05.477Z,102350.48
2023-06-12T06:23:07.305Z,102351.19
2023-06-12T06:24:10.463Z,102353.11
2023-06-12T06:25:14.075Z,102353.78
2023-06-12T06:26:16.213Z,102353.52
2023-06-12T06:27:18.562Z,102351.09
2023-06-12T06:28:20.790Z,102353.25
2023-06-12T06:29:22.686Z,102352.44
2023-06-12T06:30:25.437Z,102351.77
2023-06-12T06:31:28.485Z,102349.66
2023-06-12T06:32:30.524Z,102352.70
2023-06-12T06:33:32.818Z,102353.47
2023-06-12T06:34:34.401Z,102352.86
2023-06-12T06:35:35.825Z,102351.27
2023-06-12T06:36:37.774Z,102355.16
2023-06-12T06:37:39.350Z,102354.59
2023-06-12T06:38:40.983Z,102356.57
2023-06-12T06:39:42.575Z,102354.77
2023-06-12T06:40:44.403Z,102359.20
2023-06-12T06:41:45.999Z,102352.09
2023-06-12T06:42:47.991Z,102353.71
2023-06-12T06:43:55.369Z,102352.75
2023-06-12T06:44:59.220Z,102353.04
2023-06-12T06:46:00.955Z,102356.66
2023-06-12T06:47:04.263Z,102354.54
2023-06-12T06:48:07.919Z,102356.47
2023-06-12T06:49:09.587Z,102357.52
2023-06-12T06:50:11.719Z,102357.23
2023-06-12T06:51:13.852Z,102359.25
2023-06-12T06:52:17.680Z,102355.69
2023-06-12T06:53:19.363Z,102358.42
2023-06-12T06:54:20.983Z,102355.03
2023-06-12T06:55:22.784Z,102354.98
2023-06-12T06:56:24.507Z,102358.94
2023-06-12T06:57:26.465Z,102361.19
2023-06-12T06:58:27.964Z,102361.19
2023-06-12T06:59:29.587Z,102362.77
2023-06-12T07:00:31.103Z,102360.95
2023-06-12T07:01:33.902Z,102364.69
2023-06-12T07:02:35.627Z,102360.55
2023-06-12T07:03:37.640Z,102364.73
2023-06-12T07:04:40.606Z,102363.21
2023-06-12T07:05:42.331Z,102366.55
2023-06-12T07:06:44.585Z,102366.45
2023-06-12T07:08:00.365Z,102365.17
2023-06-12T07:09:05.106Z,102365.23
2023-06-12T07:10:08.075Z,102367.56
2023-06-12T07:11:10.304Z,102365.80
2023-06-12T07:12:12.534Z,102369.80
2023-06-12T07:13:14.459Z,102370.34
2023-06-12T07:14:21.641Z,102371.90
2023-06-12T07:15:27.348Z,102372.55
2023-06-12T07:16:30.471Z,102374.20
2023-06-12T07:17:33.690Z,102374.19
2023-06-12T07:18:35.308Z,102374.22
2023-06-12T07:19:37.531Z,102377.34
2023-06-12T07:20:39.205Z,102375.17
2023-06-12T07:21:40.888Z,102377.38
2023-06-12T07:22:42.420Z,102376.98
2023-06-12T07:23:45.439Z,102379.04
2023-06-12T07:24:47.810Z,102384.66
2023-06-12T07:25:50.672Z,102378.42
2023-06-12T07:26:53.102Z,102382.49
2023-06-12T07:27:55.396Z,102382.53
2023-06-12T07:29:00.577Z,102383.08
2023-06-12T07:30:03.281Z,102380.26
2023-06-12T07:31:05.152Z,102379.45
2023-06-12T07:32:06.987Z,102382.57
2023-06-12T07:33:10.259Z,102379.42
2023-06-12T07:34:12.210Z,102385.31
2023-06-12T07:35:15.316Z,102379.67
2023-06-12T07:36:17.115Z,102380.39
2023-06-12T07:37:21.379Z,102380.23
2023-06-12T07:38:23.598Z,102379.33
2023-06-12T07:39:25.784Z,102374.35
2023-06-12T07:40:27.673Z,102378.20
2023-06-12T07:41:29.337Z,102374.55
2023-06-12T07:42:33.540Z,102378.77
2023-06-12T07:43:35.201Z,102379.58
2023-06-12T07:44:38.134Z,102377.15
2023-06-12T07:45:40.112Z,102376.27
2023-06-12T07:46:43.034Z,102378.61
2023-06-12T07:47:46.233Z,102379.20
2023-06-12T07:48:48.093Z,102378.48
2023-06-12T07:49:49.764Z,102373.99
2023-06-12T07:50:51.254Z,102377.55
2023-06-12T07:51:54.159Z,102373.97
2023-06-12T07:52:56.464Z,102374.61
2023-06-12T07:53:58.171Z,102375.65
2023-06-12T07:55:00.756Z,102374.37
2023-06-12T07:56:02.729Z,102376.14
2023-06-12T07:57:06.759Z,102373.69
2023-06-12T07:58:08.658Z,102375.77
2023-06-12T07:59:11.652Z,102374.48
2023-06-12T08:00:17.226Z,102376.02
2023-06-12T08:01:22.950Z,102372.77
2023-06-12T08:02:29.421Z,102369.33
2023-06-12T08:03:32.322Z,102371.11
2023-06-12T08:04:35.941Z,102369.73
2023-06-12T08:05:38.253Z,102371.61
2023-06-12T08:06:45.443Z,102370.65
2023-06-12T08:07:46.986Z,102371.88
2023-06-12T08:08:48.575Z,102375.73
2023-06-12T08:09:52.018Z,102373.05
2023-06-12T08:10:54.327Z,102376.11
2023-06-12T08:11:55.990Z,102375.23
2023-06-12T08:12:57.468Z,102376.75
2023-06-12T08:13:59.131Z,102374.45
2023-06-12T08:15:03.176Z,102374.36
2023-06-12T08:16:05.208Z,102372.17
2023-06-12T08:17:07.605Z,102372.71
2023-06-12T08:18:11.523Z,102372.89
2023-06-12T08:19:13.410Z,102366.32
2023-06-12T08:20:15.907Z,102368.07
2023-06-12T08:21:19.106Z,102367.40
2023-06-12T08:22:20.738Z,102365.09
2023-06-12T08:23:22.690Z,102361.15
2023-06-12T08:24:25.798Z,102362.35
2023-06-12T08:25:27.577Z,102364.16
2023-06-12T08:26:30.798Z,102362.45
2023-06-12T08:27:32.503Z,102362.68
2023-06-12T08:28:35.870Z,102364.74
2023-06-12T08:29:40.093Z,102360.88
2023-06-12T08:30:42.039Z,102363.39
2023-06-12T08:31:43.710Z,102362.62
2023-06-12T08:32:46.809Z,102365.31
2023-06-12T08:33:49.972Z,102365.56
2023-06-12T08:34:51.623Z,102363.26
2023-06-12T08:35:53.409Z,102362.63
2023-06-12T08:36:55.156Z,102363.99
2023-06-12T08:37:56.998Z,102365.09
2023-06-12T08:39:00.908Z,102363.32
2023-06-12T08:40:02.861Z,102363.98
2023-06-12T08:41:05.748Z,102363.48
2023-06-12T08:42:15.336Z,102366.33
2023-06-12T08:43:17.078Z,102364.08
2023-06-12T08:44:22.259Z,102363.23
2023-06-12T08:45:27.010Z,102367.23
2023-06-12T08:46:31.139Z,102365.30
2023-06-12T08:47:35.615Z,102365.36
2023-06-12T08:48:37.269Z,102360.83
2023-06-12T08:49:38.807Z,102362.12
2023-06-12T08:50:43.144Z,102357.39
2023-06-12T08:51:47.371Z,102360.65
2023-06-12T08:52:50.425Z,102356.00
2023-06-12T08:53:52.609Z,102359.35
2023-06-12T08:54:55.377Z,102359.64
2023-06-12T08:55:57.857Z,102357.88
2023-06-12T08:56:59.989Z,102354.93
2023-06-12T08:58:02.464Z,102353.70
2023-06-12T08:59:04.165Z,102347.37
2023-06-12T09:00:13.086Z,102349.27
2023-06-12T09:01:15.279Z,102352.17
2023-06-12T09:02:19.028Z,102351.85
2023-06-12T09:03:21.315Z,102350.42
2023-06-12T09:04:41.996Z,102349.27
2023-06-12T09:05:44.443Z,102350.91
2023-06-12T09:06:48.236Z,102346.83
2023-06-12T09:07:50.644Z,102346.13
2023-06-12T09:08:52.602Z,102347.28
2023-06-12T09:09:57.574Z,102344.95
2023-06-12T09:11:03.711Z,102346.59
2023-06-12T09:12:08.602Z,102347.45
2023-06-12T09:13:11.034Z,102349.95
2023-06-12T09:14:12.730Z,102347.52
2023-06-12T09:15:19.482Z,102345.98
2023-06-12T09:16:21.097Z,102346.56
2023-06-12T09:17:28.991Z,102352.19
2023-06-12T09:18:31.027Z,102348.61
2023-06-12T09:19:43.574Z,102352.92
2023-06-12T09:20:45.967Z,102348.66
2023-06-12T09:21:47.729Z,102348.85
2023-06-12T09:22:52.364Z,102351.08
2023-06-12T09:23:56.023Z,102348.41
2023-06-12T09:24:57.727Z,102347.70
2023-06-12T09:26:14.826Z,102347.04
2023-06-12T09:27:22.042Z,102349.77
2023-06-12T09:28:26.388Z,102347.91
2023-06-12T09:29:32.415Z,102347.93
2023-06-12T09:30:38.953Z,102348.35
2023-06-12T09:31:41.100Z,102348.52
2023-06-12T09:32:43.637Z,102350.55
2023-06-12T09:33:45.444Z,102347.36
2023-06-12T09:34:48.873Z,102340.92
2023-06-12T09:35:51.735Z,102344.27
2023-06-12T09:36:54.460Z,102345.50
2023-06-12T09:37:59.308Z,102343.50
2023-06-12T09:39:00.870Z,102343.84
2023-06-12T09:40:13.993Z,102348.27
2023-06-12T09:41:21.258Z,102344.47
2023-06-12T09:42:22.860Z,102345.86
2023-06-12T09:43:28.377Z,102345.25
2023-06-12T09:44:31.230Z,102342.30
2023-06-12T09:45:32.778Z,102348.03
2023-06-12T09:46:34.609Z,102346.91
2023-06-12T09:47:43.521Z,102345.27
2023-06-12T09:48:45.553Z,102346.69
2023-06-12T09:49:47.036Z,102347.63
2023-06-12T09:50:48.597Z,102346.66
2023-06-12T09:51:51.573Z,102346.70
2023-06-12T09:52:59.105Z,102341.06
2023-06-12T09:54:01.631Z,102342.02
2023-06-12T09:55:06.274Z,102338.16
2023-06-12T09:56:09.414Z,102338.58
2023-06-12T09:57:13.017Z,102336.86
2023-06-12T09:58:15.291Z,102334.58
2023-06-12T09:59:18.703Z,102335.52
2023-06-12T10:00:21.360Z,102337.61
2023-06-12T10:01:26.464Z,102334.46
2023-06-12T10:02:28.205Z,102333.76
2023-06-12T10:03:31.010Z,102335.56
2023-06-12T10:04:41.000Z,102338.64
2023-06-12T10:05:47.868Z,102335.87
2023-06-12T10:06:50.863Z,102336.73
2023-06-12T10:07:54.762Z,102334.73
2023-06-12T10:08:57.124Z,102336.90
2023-06-12T10:10:02.057Z,102337.15
2023-06-12T10:11:04.525Z,102336.23
2023-06-12T10:12:07.378Z,102337.17
2023-06-12T10:13:09.790Z,102335.70
2023-06-12T10:14:12.943Z,102335.95
2023-06-12T10:15:16.041Z,102334.19
2023-06-12T10:16:18.801Z,102333.77
2023-06-12T10:17:22.593Z,102333.88
2023-06-12T10:18:25.678Z,102330.63
2023-06-12T10:19:27.529Z,102330.42
2023-06-12T10:20:30.661Z,102330.52
2023-06-12T10:21:32.436Z,102330.66
2023-06-12T10:22:33.999Z,102330.13
2023-06-12T10:23:37.273Z,102330.54
2023-06-12T10:24:40.133Z,102327.63
2023-06-12T10:25:42.007Z,102325.73
2023-06-12T10:26:44.317Z,102328.09
2023-06-12T10:27:46.632Z,102326.09
2023-06-12T10:28:48.280Z,102325.09
2023-06-12T10:30:00.850Z,102326.63
2023-06-12T10:31:29.742Z,102324.02
2023-06-12T10:32:32.908Z,102325.83
2023-06-12T10:33:37.418Z,102322.41
2023-06-12T10:34:45.482Z,102318.96
2023-06-12T10:35:48.889Z,102315.84
2023-06-12T10:36:50.630Z,102316.00
2023-06-12T10:37:52.380Z,102313.25
2023-06-12T10:39:07.375Z,102313.23
2023-06-12T10:40:10.895Z,102315.67
2023-06-12T10:41:12.727Z,102314.17
2023-06-12T10:42:14.254Z,102306.61
2023-06-12T10:43:21.322Z,102314.35
2023-06-12T10:44:39.564Z,102311.30
2023-06-12T10:45:56.029Z,102310.96
2023-06-12T10:47:01.773Z,102309.58
2023-06-12T10:48:06.106Z,102305.71
2023-06-12T10:49:08.181Z,102305.25
2023-06-12T10:50:09.845Z,102305.98
2023-06-12T10:51:11.968Z,102303.09
2023-06-12T10:52:20.681Z,102303.95
2023-06-12T10:53:29.648Z,102305.84
2023-06-12T10:54:31.080Z,102302.83
2023-06-12T10:55:39.165Z,102301.00
2023-06-12T10:56:58.877Z,102303.80
2023-06-12T10:58:06.004Z,102299.65
2023-06-12T10:59:14.602Z,102298.67
2023-06-12T11:00:18.545Z,102296.95
2023-06-12T11:01:20.805Z,102296.67
2023-06-12T11:02:22.493Z,102290.58
2023-06-12T11:03:29.718Z,102290.98
2023-06-12T11:04:38.443Z,102289.06
2023-06-12T11:05:52.296Z,102285.48
2023-06-12T11:06:54.666Z,102285.79
2023-06-12T11:08:04.890Z,102285.64
2023-06-12T11:09:12.277Z,102281.90
2023-06-12T11:10:14.466Z,102285.92
2023-06-12T11:11:17.148Z,102281.10
2023-06-12T11:12:18.714Z,102279.38
2023-06-12T11:13:27.239Z,102279.19
2023-06-12T11:14:32.356Z,102282.81
2023-06-12T11:15:45.169Z,102277.61
2023-06-12T11:16:46.653Z,102272.94
2023-06-12T11:17:49.162Z,102276.77
2023-06-12T11:19:09.074Z,102273.51
2023-06-12T11:20:11.450Z,102273.65
2023-06-12T11:21:13.747Z,102272.31
2023-06-12T11:22:15.238Z,102270.25
2023-06-12T11:23:16.990Z,102264.71
2023-06-12T11:24:18.722Z,102268.16
2023-06-12T11:25:20.369Z,102263.60
2023-06-12T11:26:22.003Z,102259.53
2023-06-12T11:27:23.998Z,102260.18
2023-06-12T11:28:26.994Z,102256.43
2023-06-12T11:30:43.452Z,102259.32
2023-06-12T11:32:01.735Z,102258.20
2023-06-12T11:33:17.811Z,102256.23
2023-06-12T11:34:19.429Z,102259.13
2023-06-12T11:35:20.958Z,102252.80
2023-06-12T11:36:22.540Z,102256.27
2023-06-12T11:37:26.634Z,102258.92
2023-06-12T11:40:37.284Z,102251.38
2023-06-12T11:41:38.779Z,102249.64
2023-06-12T11:42:41.857Z,102255.08
2023-06-12T11:43:44.113Z,102251.61
2023-06-12T11:44:50.361Z,102253.69
2023-06-12T11:45:53.056Z,102255.69
2023-06-12T11:49:25.685Z,102245.02
2023-06-12T11:50:27.919Z,102242.62
2023-06-12T11:51:30.816Z,102246.60
2023-06-12T11:52:34.520Z,102250.75
2023-06-12T11:53:36.196Z,102249.11
2023-06-12T11:57:17.120Z,102241.39
2023-06-12T11:58:21.634Z,102239.41
2023-06-12T11:59:34.681Z,102243.77
2023-06-12T12:00:37.701Z,102242.35
2023-06-12T12:01:41.663Z,102242.41
2023-06-12T12:02:46.872Z,102239.79
2023-06-12T12:03:49.166Z,102240.63
2023-06-12T12:04:51.108Z,102235.54
2023-06-12T12:05:52.740Z,102239.09
2023-06-12T12:06:55.465Z,102240.55
2023-06-12T12:08:00.318Z,102239.41
2023-06-12T12:09:02.979Z,102233.05
2023-06-12T12:10:09.743Z,102232.44
2023-06-12T12:11:21.255Z,102232.19
2023-06-12T12:12:23.300Z,102232.54
2023-06-12T12:13:24.798Z,102230.98
2023-06-12T12:14:27.453Z,102230.55
2023-06-12T12:15:31.585Z,102230.20
2023-06-12T12:16:40.630Z,102229.70